PWSweather.com
Personal Weather Stations
Station Observations
LABLIDAR
PotenzaIT

PotenzaIT

Lat: 40.6467, Lon: 15.809

Elevation: 2395

Station Type: Oregon WMRS200

High Low Average
Temperature 0.0°F-17.8°F 0.0°F-17.8°F 0.0°F-17.8°F
Dew Point 0.0°F-17.8°F 0.0°F-17.8°F 0.0°F-17.8°F
Winds Calm Calm Calm Calm Calm Calm
Wind Gusts -- -- --
Humidity 0% 0% 0%
Pressure 0.00 in0.00 in 0.00 in0.00 in -
Precipitation 0.00 in0.00 in - -
Hour Temp Dew Point Humidity Winds Wind Gusts Pressure Precip Precip Rate Daily Precip Total
12:04 AM 70.2°F21.2°C 50.2°F10.1°C 49% - N16091.8 kmh N -- 27.55 in933.0 mb 0.00 in0.0 mm 0.00 in/hr0.0 mm/hr 0.00 in0.0 mm
12:09 AM 70.2°F21.2°C 50.1°F10.1°C 49% - N16091.8 kmh N -- 27.55 in933.0 mb 0.00 in0.0 mm 0.00 in/hr0.0 mm/hr 0.00 in0.0 mm
12:14 AM 70.1°F21.2°C 50.0°F10.0°C 49% - N16091.8 kmh N -- 27.55 in933.0 mb 0.00 in0.0 mm 0.00 in/hr0.0 mm/hr 0.00 in0.0 mm
12:19 AM 70.0°F21.1°C 50.0°F10.0°C 49% - N16091.8 kmh N -- 27.55 in933.0 mb 0.00 in0.0 mm 0.00 in/hr0.0 mm/hr 0.00 in0.0 mm
12:24 AM 69.9°F21.1°C 49.9°F9.9°C 49% - N16091.8 kmh N -- 27.55 in933.0 mb 0.00 in0.0 mm 0.00 in/hr0.0 mm/hr 0.00 in0.0 mm
12:29 AM 69.8°F21.0°C 49.8°F9.9°C 49% - N16091.8 kmh N -- 27.52 in931.9 mb 0.00 in0.0 mm 0.00 in/hr0.0 mm/hr 0.00 in0.0 mm
12:34 AM 69.7°F20.9°C 49.7°F9.8°C 49% - N16091.8 kmh N -- 27.52 in931.9 mb 0.00 in0.0 mm 0.00 in/hr0.0 mm/hr 0.00 in0.0 mm
12:39 AM 69.6°F20.9°C 49.6°F9.8°C 49% - N16091.8 kmh N -- 27.52 in931.9 mb 0.00 in0.0 mm 0.00 in/hr0.0 mm/hr 0.00 in0.0 mm
12:44 AM 69.6°F20.9°C 49.6°F9.8°C 49% - N16091.8 kmh N -- 27.52 in931.9 mb 0.00 in0.0 mm 0.00 in/hr0.0 mm/hr 0.00 in0.0 mm
12:49 AM 69.5°F20.8°C 49.5°F9.7°C 49% - N16091.8 kmh N -- 27.52 in931.9 mb 0.00 in0.0 mm 0.00 in/hr0.0 mm/hr 0.00 in0.0 mm
12:54 AM 69.4°F20.8°C 49.5°F9.7°C 49% - N16091.8 kmh N -- 27.52 in931.9 mb 0.00 in0.0 mm 0.00 in/hr0.0 mm/hr 0.00 in0.0 mm
12:59 AM 69.4°F20.8°C 49.7°F9.8°C 50% - N16091.8 kmh N -- 27.55 in933.0 mb 0.00 in0.0 mm 0.00 in/hr0.0 mm/hr 0.00 in0.0 mm
01:04 AM 69.4°F20.8°C 49.9°F9.9°C 50% - N16091.8 kmh N -- 27.55 in933.0 mb 0.00 in0.0 mm 0.00 in/hr0.0 mm/hr 0.00 in0.0 mm
01:09 AM 69.3°F20.7°C 49.9°F9.9°C 50% - N16091.8 kmh N -- 27.55 in933.0 mb 0.00 in0.0 mm 0.00 in/hr0.0 mm/hr 0.00 in0.0 mm
01:14 AM 69.3°F20.7°C 49.9°F9.9°C 50% - N16091.8 kmh N -- 27.52 in931.9 mb 0.00 in0.0 mm 0.00 in/hr0.0 mm/hr 0.00 in0.0 mm
01:19 AM 69.3°F20.7°C 49.9°F9.9°C 50% - N16091.8 kmh N -- 27.52 in931.9 mb 0.00 in0.0 mm 0.00 in/hr0.0 mm/hr 0.00 in0.0 mm
01:24 AM 69.3°F20.7°C 49.9°F9.9°C 50% - N16091.8 kmh N -- 27.52 in931.9 mb 0.00 in0.0 mm 0.00 in/hr0.0 mm/hr 0.00 in0.0 mm
01:29 AM 69.2°F20.7°C 49.8°F9.9°C 50% - N16091.8 kmh N -- 27.52 in931.9 mb 0.00 in0.0 mm 0.00 in/hr0.0 mm/hr 0.00 in0.0 mm
01:34 AM 69.1°F20.6°C 49.7°F9.8°C 50% - N16091.8 kmh N -- 27.52 in931.9 mb 0.00 in0.0 mm 0.00 in/hr0.0 mm/hr 0.00 in0.0 mm
01:39 AM 69.1°F20.6°C 49.7°F9.8°C 50% - N16091.8 kmh N -- 27.52 in931.9 mb 0.00 in0.0 mm 0.00 in/hr0.0 mm/hr 0.00 in0.0 mm
01:44 AM 69.0°F20.6°C 49.6°F9.8°C 50% - N16091.8 kmh N -- 27.52 in931.9 mb 0.00 in0.0 mm 0.00 in/hr0.0 mm/hr 0.00 in0.0 mm
01:49 AM 68.9°F20.5°C 49.5°F9.7°C 50% - N16091.8 kmh N -- 27.52 in931.9 mb 0.00 in0.0 mm 0.00 in/hr0.0 mm/hr 0.00 in0.0 mm
01:54 AM 68.9°F20.5°C 49.5°F9.7°C 50% - N16091.8 kmh N -- 27.52 in931.9 mb 0.00 in0.0 mm 0.00 in/hr0.0 mm/hr 0.00 in0.0 mm
01:59 AM 68.9°F20.5°C 49.5°F9.7°C 50% - N16091.8 kmh N -- 27.52 in931.9 mb 0.00 in0.0 mm 0.00 in/hr0.0 mm/hr 0.00 in0.0 mm
02:04 AM 68.7°F20.4°C 49.4°F9.7°C 50% - N16091.8 kmh N -- 27.52 in931.9 mb 0.00 in0.0 mm 0.00 in/hr0.0 mm/hr 0.00 in0.0 mm
02:09 AM 68.7°F20.4°C 49.4°F9.7°C 50% - N16091.8 kmh N -- 27.52 in931.9 mb 0.00 in0.0 mm 0.00 in/hr0.0 mm/hr 0.00 in0.0 mm
02:14 AM 68.7°F20.4°C 49.5°F9.7°C 51% - N16091.8 kmh N -- 27.52 in931.9 mb 0.00 in0.0 mm 0.00 in/hr0.0 mm/hr 0.00 in0.0 mm
02:19 AM 68.7°F20.4°C 49.9°F9.9°C 51% - N16091.8 kmh N -- 27.52 in931.9 mb 0.00 in0.0 mm 0.00 in/hr0.0 mm/hr 0.00 in0.0 mm
02:24 AM 68.6°F20.3°C 49.8°F9.9°C 51% - N16091.8 kmh N -- 27.52 in931.9 mb 0.00 in0.0 mm 0.00 in/hr0.0 mm/hr 0.00 in0.0 mm
02:29 AM 68.5°F20.3°C 49.7°F9.8°C 51% - N16091.8 kmh N -- 27.52 in931.9 mb 0.00 in0.0 mm 0.00 in/hr0.0 mm/hr 0.00 in0.0 mm
02:34 AM 68.5°F20.3°C 49.7°F9.8°C 51% - N16091.8 kmh N -- 27.52 in931.9 mb 0.00 in0.0 mm 0.00 in/hr0.0 mm/hr 0.00 in0.0 mm
02:39 AM 68.5°F20.3°C 49.7°F9.8°C 51% - N16091.8 kmh N -- 27.52 in931.9 mb 0.00 in0.0 mm 0.00 in/hr0.0 mm/hr 0.00 in0.0 mm
02:44 AM 68.5°F20.3°C 49.7°F9.8°C 51% - N16091.8 kmh N -- 27.52 in931.9 mb 0.00 in0.0 mm 0.00 in/hr0.0 mm/hr 0.00 in0.0 mm
02:49 AM 68.4°F20.2°C 49.6°F9.8°C 51% - N16091.8 kmh N -- 27.52 in931.9 mb 0.00 in0.0 mm 0.00 in/hr0.0 mm/hr 0.00 in0.0 mm
02:54 AM 68.4°F20.2°C 49.6°F9.8°C 51% - N16091.8 kmh N -- 27.52 in931.9 mb 0.00 in0.0 mm 0.00 in/hr0.0 mm/hr 0.00 in0.0 mm
02:59 AM 68.4°F20.2°C 49.6°F9.8°C 51% - N16091.8 kmh N -- 27.52 in931.9 mb 0.00 in0.0 mm 0.00 in/hr0.0 mm/hr 0.00 in0.0 mm
03:04 AM 68.4°F20.2°C 49.6°F9.8°C 51% - N16091.8 kmh N -- 27.52 in931.9 mb 0.00 in0.0 mm 0.00 in/hr0.0 mm/hr 0.00 in0.0 mm
03:09 AM 68.4°F20.2°C 49.6°F9.8°C 51% - N16091.8 kmh N -- 27.52 in931.9 mb 0.00 in0.0 mm 0.00 in/hr0.0 mm/hr 0.00 in0.0 mm
03:14 AM 68.4°F20.2°C 49.6°F9.8°C 51% - N16091.8 kmh N -- 27.52 in931.9 mb 0.00 in0.0 mm 0.00 in/hr0.0 mm/hr 0.00 in0.0 mm
03:19 AM 68.4°F20.2°C 49.6°F9.8°C 51% - N16091.8 kmh N -- 27.52 in931.9 mb 0.00 in0.0 mm 0.00 in/hr0.0 mm/hr 0.00 in0.0 mm
03:24 AM 68.4°F20.2°C 49.6°F9.8°C 51% - N16091.8 kmh N -- 27.52 in931.9 mb 0.00 in0.0 mm 0.00 in/hr0.0 mm/hr 0.00 in0.0 mm
03:29 AM 68.4°F20.2°C 49.6°F9.8°C 51% - N16091.8 kmh N -- 27.52 in931.9 mb 0.00 in0.0 mm 0.00 in/hr0.0 mm/hr 0.00 in0.0 mm
03:34 AM 68.4°F20.2°C 49.6°F9.8°C 51% - N16091.8 kmh N -- 27.52 in931.9 mb 0.00 in0.0 mm 0.00 in/hr0.0 mm/hr 0.00 in0.0 mm
03:39 AM 68.4°F20.2°C 49.6°F9.8°C 51% - N16091.8 kmh N -- 27.52 in931.9 mb 0.00 in0.0 mm 0.00 in/hr0.0 mm/hr 0.00 in0.0 mm
03:44 AM 68.4°F20.2°C 49.6°F9.8°C 51% - N16091.8 kmh N -- 27.52 in931.9 mb 0.00 in0.0 mm 0.00 in/hr0.0 mm/hr 0.00 in0.0 mm
03:49 AM 68.4°F20.2°C 49.6°F9.8°C 51% - N16091.8 kmh N -- 27.52 in931.9 mb 0.00 in0.0 mm 0.00 in/hr0.0 mm/hr 0.00 in0.0 mm
03:54 AM 68.4°F20.2°C 49.8°F9.9°C 52% - N16091.8 kmh N -- 27.52 in931.9 mb 0.00 in0.0 mm 0.00 in/hr0.0 mm/hr 0.00 in0.0 mm
03:59 AM 68.4°F20.2°C 50.1°F10.1°C 52% - N16091.8 kmh N -- 27.52 in931.9 mb 0.00 in0.0 mm 0.00 in/hr0.0 mm/hr 0.00 in0.0 mm
04:04 AM 68.4°F20.2°C 50.1°F10.1°C 52% - N16091.8 kmh N -- 27.52 in931.9 mb 0.00 in0.0 mm 0.00 in/hr0.0 mm/hr 0.00 in0.0 mm
04:09 AM 68.4°F20.2°C 50.1°F10.1°C 52% - N16091.8 kmh N -- 27.52 in931.9 mb 0.00 in0.0 mm 0.00 in/hr0.0 mm/hr 0.00 in0.0 mm
04:14 AM 68.4°F20.2°C 50.1°F10.1°C 52% - N16091.8 kmh N -- 27.52 in931.9 mb 0.00 in0.0 mm 0.00 in/hr0.0 mm/hr 0.00 in0.0 mm
04:19 AM 68.3°F20.2°C 50.0°F10.0°C 52% - N16091.8 kmh N -- 27.52 in931.9 mb 0.00 in0.0 mm 0.00 in/hr0.0 mm/hr 0.00 in0.0 mm
04:24 AM 68.2°F20.1°C 49.9°F9.9°C 52% - N16091.8 kmh N -- 27.52 in931.9 mb 0.00 in0.0 mm 0.00 in/hr0.0 mm/hr 0.00 in0.0 mm
04:29 AM 68.2°F20.1°C 49.9°F9.9°C 52% - N16091.8 kmh N -- 27.52 in931.9 mb 0.00 in0.0 mm 0.00 in/hr0.0 mm/hr 0.00 in0.0 mm
04:34 AM 68.2°F20.1°C 49.9°F9.9°C 52% - N16091.8 kmh N -- 27.52 in931.9 mb 0.00 in0.0 mm 0.00 in/hr0.0 mm/hr 0.00 in0.0 mm
04:39 AM 68.2°F20.1°C 49.9°F9.9°C 52% - N16091.8 kmh N -- 27.52 in931.9 mb 0.00 in0.0 mm 0.00 in/hr0.0 mm/hr 0.00 in0.0 mm
04:44 AM 68.2°F20.1°C 49.9°F9.9°C 52% - N16091.8 kmh N -- 27.52 in931.9 mb 0.00 in0.0 mm 0.00 in/hr0.0 mm/hr 0.00 in0.0 mm
04:49 AM 68.2°F20.1°C 50.2°F10.1°C 53% - N16091.8 kmh N -- 27.52 in931.9 mb 0.00 in0.0 mm 0.00 in/hr0.0 mm/hr 0.00 in0.0 mm
04:54 AM 68.1°F20.1°C 50.4°F10.2°C 53% - N16091.8 kmh N -- 27.52 in931.9 mb 0.00 in0.0 mm 0.00 in/hr0.0 mm/hr 0.00 in0.0 mm
04:59 AM 68.0°F20.0°C 50.3°F10.2°C 53% - N16091.8 kmh N -- 27.52 in931.9 mb 0.00 in0.0 mm 0.00 in/hr0.0 mm/hr 0.00 in0.0 mm
05:04 AM 68.0°F20.0°C 50.3°F10.2°C 53% - N16091.8 kmh N -- 27.52 in931.9 mb 0.00 in0.0 mm 0.00 in/hr0.0 mm/hr 0.00 in0.0 mm
05:09 AM 68.0°F20.0°C 50.3°F10.2°C 53% - N16091.8 kmh N -- 27.52 in931.9 mb 0.00 in0.0 mm 0.00 in/hr0.0 mm/hr 0.00 in0.0 mm
05:14 AM 67.9°F19.9°C 50.2°F10.1°C 53% - N16091.8 kmh N -- 27.52 in931.9 mb 0.00 in0.0 mm 0.00 in/hr0.0 mm/hr 0.00 in0.0 mm
05:19 AM 67.8°F19.9°C 50.1°F10.1°C 53% - N16091.8 kmh N -- 27.52 in931.9 mb 0.00 in0.0 mm 0.00 in/hr0.0 mm/hr 0.00 in0.0 mm
05:24 AM 67.8°F19.9°C 50.1°F10.1°C 53% - N16091.8 kmh N -- 27.52 in931.9 mb 0.00 in0.0 mm 0.00 in/hr0.0 mm/hr 0.00 in0.0 mm
05:29 AM 67.8°F19.9°C 50.5°F10.3°C 54% - N16091.8 kmh N -- 27.52 in931.9 mb 0.00 in0.0 mm 0.00 in/hr0.0 mm/hr 0.00 in0.0 mm
05:34 AM 67.8°F19.9°C 50.6°F10.3°C 54% - N16091.8 kmh N -- 27.52 in931.9 mb 0.00 in0.0 mm 0.00 in/hr0.0 mm/hr 0.00 in0.0 mm
05:39 AM 67.6°F19.8°C 50.4°F10.2°C 54% - N16091.8 kmh N -- 27.52 in931.9 mb 0.00 in0.0 mm 0.00 in/hr0.0 mm/hr 0.00 in0.0 mm
05:44 AM 67.6°F19.8°C 50.4°F10.2°C 54% - N16091.8 kmh N -- 27.52 in931.9 mb 0.00 in0.0 mm 0.00 in/hr0.0 mm/hr 0.00 in0.0 mm
05:49 AM 67.6°F19.8°C 50.4°F10.2°C 54% - N16091.8 kmh N -- 27.52 in931.9 mb 0.00 in0.0 mm 0.00 in/hr0.0 mm/hr 0.00 in0.0 mm
05:54 AM 67.6°F19.8°C 50.4°F10.2°C 54% - N16091.8 kmh N -- 27.52 in931.9 mb 0.00 in0.0 mm 0.00 in/hr0.0 mm/hr 0.00 in0.0 mm
05:59 AM 67.7°F19.8°C 50.5°F10.3°C 54% - N16091.8 kmh N -- 27.52 in931.9 mb 0.00 in0.0 mm 0.00 in/hr0.0 mm/hr 0.00 in0.0 mm
06:04 AM 67.8°F19.9°C 50.6°F10.3°C 54% - N16091.8 kmh N -- 27.52 in931.9 mb 0.00 in0.0 mm 0.00 in/hr0.0 mm/hr 0.00 in0.0 mm
06:09 AM 67.8°F19.9°C 50.6°F10.3°C 54% - N16091.8 kmh N -- 27.52 in931.9 mb 0.00 in0.0 mm 0.00 in/hr0.0 mm/hr 0.00 in0.0 mm
06:14 AM 67.8°F19.9°C 50.6°F10.3°C 54% - N16091.8 kmh N -- 27.52 in931.9 mb 0.00 in0.0 mm 0.00 in/hr0.0 mm/hr 0.00 in0.0 mm
06:19 AM 68.0°F20.0°C 50.7°F10.4°C 54% - N16091.8 kmh N -- 27.52 in931.9 mb 0.00 in0.0 mm 0.00 in/hr0.0 mm/hr 0.00 in0.0 mm
06:24 AM 68.0°F20.0°C 50.8°F10.4°C 54% - N16091.8 kmh N -- 27.52 in931.9 mb 0.00 in0.0 mm 0.00 in/hr0.0 mm/hr 0.00 in0.0 mm
06:29 AM 68.1°F20.1°C 50.9°F10.5°C 54% - N16091.8 kmh N -- 27.52 in931.9 mb 0.00 in0.0 mm 0.00 in/hr0.0 mm/hr 0.00 in0.0 mm
06:34 AM 68.3°F20.2°C 51.0°F10.6°C 54% - N16091.8 kmh N -- 27.52 in931.9 mb 0.00 in0.0 mm 0.00 in/hr0.0 mm/hr 0.00 in0.0 mm
06:39 AM 68.5°F20.3°C 50.9°F10.5°C 53% - N16091.8 kmh N -- 27.52 in931.9 mb 0.00 in0.0 mm 0.00 in/hr0.0 mm/hr 0.00 in0.0 mm
06:44 AM 68.8°F20.4°C 51.0°F10.6°C 53% - N16091.8 kmh N -- 27.49 in930.9 mb 0.00 in0.0 mm 0.00 in/hr0.0 mm/hr 0.00 in0.0 mm
06:49 AM 69.1°F20.6°C 51.3°F10.7°C 53% - N16091.8 kmh N -- 27.49 in930.9 mb 0.00 in0.0 mm 0.00 in/hr0.0 mm/hr 0.00 in0.0 mm
06:54 AM 69.4°F20.8°C 51.5°F10.8°C 52% - N16091.8 kmh N -- 27.49 in930.9 mb 0.00 in0.0 mm 0.00 in/hr0.0 mm/hr 0.00 in0.0 mm
06:59 AM 69.7°F20.9°C 51.4°F10.8°C 52% - N16091.8 kmh N -- 27.52 in931.9 mb 0.00 in0.0 mm 0.00 in/hr0.0 mm/hr 0.00 in0.0 mm
07:04 AM 70.1°F21.2°C 51.3°F10.7°C 51% - N16091.8 kmh N -- 27.52 in931.9 mb 0.00 in0.0 mm 0.00 in/hr0.0 mm/hr 0.00 in0.0 mm
07:09 AM 70.4°F21.3°C 51.5°F10.8°C 51% - N16091.8 kmh N -- 27.52 in931.9 mb 0.00 in0.0 mm 0.00 in/hr0.0 mm/hr 0.00 in0.0 mm
07:14 AM 70.8°F21.6°C 51.5°F10.8°C 50% - N16091.8 kmh N -- 27.49 in930.9 mb 0.00 in0.0 mm 0.00 in/hr0.0 mm/hr 0.00 in0.0 mm
07:19 AM 71.1°F21.7°C 51.6°F10.9°C 50% - N16091.8 kmh N -- 27.49 in930.9 mb 0.00 in0.0 mm 0.00 in/hr0.0 mm/hr 0.00 in0.0 mm
07:24 AM 71.5°F21.9°C 51.6°F10.9°C 49% - N16091.8 kmh N -- 27.49 in930.9 mb 0.00 in0.0 mm 0.00 in/hr0.0 mm/hr 0.00 in0.0 mm
07:29 AM 71.8°F22.1°C 51.5°F10.8°C 48% - N16091.8 kmh N -- 27.49 in930.9 mb 0.00 in0.0 mm 0.00 in/hr0.0 mm/hr 0.00 in0.0 mm
07:34 AM 72.1°F22.3°C 51.4°F10.8°C 48% - N16091.8 kmh N -- 27.49 in930.9 mb 0.00 in0.0 mm 0.00 in/hr0.0 mm/hr 0.00 in0.0 mm
07:39 AM 72.5°F22.5°C 51.7°F10.9°C 48% - N16091.8 kmh N -- 27.49 in930.9 mb 0.00 in0.0 mm 0.00 in/hr0.0 mm/hr 0.00 in0.0 mm
07:44 AM 72.8°F22.7°C 51.5°F10.8°C 47% - N16091.8 kmh N -- 27.49 in930.9 mb 0.00 in0.0 mm 0.00 in/hr0.0 mm/hr 0.00 in0.0 mm
07:49 AM 73.1°F22.8°C 51.7°F10.9°C 47% - N16091.8 kmh N -- 27.49 in930.9 mb 0.00 in0.0 mm 0.00 in/hr0.0 mm/hr 0.00 in0.0 mm
07:54 AM 73.5°F23.1°C 51.7°F10.9°C 46% - N16091.8 kmh N -- 27.49 in930.9 mb 0.00 in0.0 mm 0.00 in/hr0.0 mm/hr 0.00 in0.0 mm
07:59 AM 73.8°F23.2°C 51.5°F10.8°C 45% - N16091.8 kmh N -- 27.49 in930.9 mb 0.00 in0.0 mm 0.00 in/hr0.0 mm/hr 0.00 in0.0 mm
08:04 AM 74.1°F23.4°C 51.4°F10.8°C 45% - N16091.8 kmh N -- 27.49 in930.9 mb 0.00 in0.0 mm 0.00 in/hr0.0 mm/hr 0.00 in0.0 mm
08:09 AM 74.4°F23.6°C 51.6°F10.9°C 45% - N16091.8 kmh N -- 27.49 in930.9 mb 0.00 in0.0 mm 0.00 in/hr0.0 mm/hr 0.00 in0.0 mm
08:14 AM 74.3°F23.5°C 49.9°F9.9°C 41% - N16091.8 kmh N -- 27.49 in930.9 mb 0.00 in0.0 mm 0.00 in/hr0.0 mm/hr 0.00 in0.0 mm
08:19 AM 73.5°F23.1°C 49.1°F9.5°C 45% - N16091.8 kmh N -- 27.49 in930.9 mb 0.00 in0.0 mm 0.00 in/hr0.0 mm/hr 0.00 in0.0 mm
08:24 AM 73.2°F22.9°C 51.0°F10.6°C 46% - N16091.8 kmh N -- 27.49 in930.9 mb 0.00 in0.0 mm 0.00 in/hr0.0 mm/hr 0.00 in0.0 mm
08:29 AM 73.6°F23.1°C 51.5°F10.8°C 46% - N16091.8 kmh N -- 27.49 in930.9 mb 0.00 in0.0 mm 0.00 in/hr0.0 mm/hr 0.00 in0.0 mm
08:34 AM 74.1°F23.4°C 51.5°F10.8°C 45% - N16091.8 kmh N -- 27.49 in930.9 mb 0.00 in0.0 mm 0.00 in/hr0.0 mm/hr 0.00 in0.0 mm
08:39 AM 74.1°F23.4°C 49.4°F9.7°C 40% - N16091.8 kmh N -- 27.49 in930.9 mb 0.00 in0.0 mm 0.00 in/hr0.0 mm/hr 0.00 in0.0 mm
08:44 AM 73.3°F22.9°C 49.9°F9.9°C 46% - N16091.8 kmh N -- 27.52 in931.9 mb 0.00 in0.0 mm 0.00 in/hr0.0 mm/hr 0.00 in0.0 mm
08:49 AM 73.1°F22.8°C 51.1°F10.6°C 46% - N16091.8 kmh N -- 27.52 in931.9 mb 0.00 in0.0 mm 0.00 in/hr0.0 mm/hr 0.00 in0.0 mm
08:54 AM 73.6°F23.1°C 51.4°F10.8°C 45% - N16091.8 kmh N -- 27.52 in931.9 mb 0.00 in0.0 mm 0.00 in/hr0.0 mm/hr 0.00 in0.0 mm
08:59 AM 74.1°F23.4°C 51.0°F10.6°C 43% - N16091.8 kmh N -- 27.49 in930.9 mb 0.00 in0.0 mm 0.00 in/hr0.0 mm/hr 0.00 in0.0 mm
09:04 AM 73.9°F23.3°C 48.5°F9.2°C 42% - N16091.8 kmh N -- 27.49 in930.9 mb 0.00 in0.0 mm 0.00 in/hr0.0 mm/hr 0.00 in0.0 mm
09:09 AM 73.1°F22.8°C 50.6°F10.3°C 46% - N16091.8 kmh N -- 27.49 in930.9 mb 0.00 in0.0 mm 0.00 in/hr0.0 mm/hr 0.00 in0.0 mm
09:14 AM 73.3°F22.9°C 51.1°F10.6°C 45% - N16091.8 kmh N -- 27.49 in930.9 mb 0.00 in0.0 mm 0.00 in/hr0.0 mm/hr 0.00 in0.0 mm
09:19 AM 74.0°F23.3°C 50.8°F10.4°C 43% - N16091.8 kmh N -- 27.49 in930.9 mb 0.00 in0.0 mm 0.00 in/hr0.0 mm/hr 0.00 in0.0 mm
09:24 AM 74.0°F23.3°C 48.2°F9.0°C 40% - N16091.8 kmh N -- 27.49 in930.9 mb 0.00 in0.0 mm 0.00 in/hr0.0 mm/hr 0.00 in0.0 mm
09:29 AM 73.3°F22.9°C 50.1°F10.1°C 45% - N16091.8 kmh N -- 27.52 in931.9 mb 0.00 in0.0 mm 0.00 in/hr0.0 mm/hr 0.00 in0.0 mm
09:34 AM 73.6°F23.1°C 50.6°F10.3°C 44% - N16091.8 kmh N -- 27.52 in931.9 mb 0.00 in0.0 mm 0.00 in/hr0.0 mm/hr 0.00 in0.0 mm
09:39 AM 74.0°F23.3°C 48.4°F9.1°C 38% - N16091.8 kmh N -- 27.52 in931.9 mb 0.00 in0.0 mm 0.00 in/hr0.0 mm/hr 0.00 in0.0 mm
09:44 AM 74.0°F23.3°C 48.8°F9.3°C 44% - N16091.8 kmh N -- 27.52 in931.9 mb 0.00 in0.0 mm 0.00 in/hr0.0 mm/hr 0.00 in0.0 mm
09:49 AM 74.3°F23.5°C 50.7°F10.4°C 42% - N16091.8 kmh N -- 27.52 in931.9 mb 0.00 in0.0 mm 0.00 in/hr0.0 mm/hr 0.00 in0.0 mm
09:54 AM 74.2°F23.4°C 48.0°F8.9°C 41% - N16091.8 kmh N -- 27.52 in931.9 mb 0.00 in0.0 mm 0.00 in/hr0.0 mm/hr 0.00 in0.0 mm
09:59 AM 74.2°F23.4°C 50.2°F10.1°C 44% - N16091.8 kmh N -- 27.52 in931.9 mb 0.00 in0.0 mm 0.00 in/hr0.0 mm/hr 0.00 in0.0 mm
10:04 AM 74.6°F23.7°C 50.5°F10.3°C 42% - N16091.8 kmh N -- 27.52 in931.9 mb 0.00 in0.0 mm 0.00 in/hr0.0 mm/hr 0.00 in0.0 mm
10:09 AM 74.4°F23.6°C 48.2°F9.0°C 41% - N16091.8 kmh N -- 27.52 in931.9 mb 0.00 in0.0 mm 0.00 in/hr0.0 mm/hr 0.00 in0.0 mm
10:14 AM 74.3°F23.5°C 50.3°F10.2°C 43% - N16091.8 kmh N -- 27.52 in931.9 mb 0.00 in0.0 mm 0.00 in/hr0.0 mm/hr 0.00 in0.0 mm
10:19 AM 74.6°F23.7°C 50.3°F10.2°C 41% - N16091.8 kmh N -- 27.52 in931.9 mb 0.00 in0.0 mm 0.00 in/hr0.0 mm/hr 0.00 in0.0 mm
10:24 AM 74.3°F23.5°C 47.8°F8.8°C 41% - N16091.8 kmh N -- 27.52 in931.9 mb 0.00 in0.0 mm 0.00 in/hr0.0 mm/hr 0.00 in0.0 mm
10:29 AM 74.3°F23.5°C 50.2°F10.1°C 43% - N16091.8 kmh N -- 27.52 in931.9 mb 0.00 in0.0 mm 0.00 in/hr0.0 mm/hr 0.00 in0.0 mm
10:34 AM 74.6°F23.7°C 49.7°F9.8°C 40% - N16091.8 kmh N -- 27.52 in931.9 mb 0.00 in0.0 mm 0.00 in/hr0.0 mm/hr 0.00 in0.0 mm
10:39 AM 74.2°F23.4°C 48.0°F8.9°C 42% - N16091.8 kmh N -- 27.52 in931.9 mb 0.00 in0.0 mm 0.00 in/hr0.0 mm/hr 0.00 in0.0 mm
10:44 AM 74.4°F23.6°C 50.5°F10.3°C 43% - N16091.8 kmh N -- 27.52 in931.9 mb 0.00 in0.0 mm 0.00 in/hr0.0 mm/hr 0.00 in0.0 mm
10:49 AM 74.5°F23.6°C 49.1°F9.5°C 38% - N16091.8 kmh N -- 27.52 in931.9 mb 0.00 in0.0 mm 0.00 in/hr0.0 mm/hr 0.00 in0.0 mm
10:54 AM 74.2°F23.4°C 48.5°F9.2°C 43% - N16091.8 kmh N -- 27.52 in931.9 mb 0.00 in0.0 mm 0.00 in/hr0.0 mm/hr 0.00 in0.0 mm
10:59 AM 74.4°F23.6°C 50.4°F10.2°C 43% - N16091.8 kmh N -- 27.52 in931.9 mb 0.00 in0.0 mm 0.00 in/hr0.0 mm/hr 0.00 in0.0 mm
11:04 AM 74.5°F23.6°C 48.8°F9.3°C 38% - N16091.8 kmh N -- 27.52 in931.9 mb 0.00 in0.0 mm 0.00 in/hr0.0 mm/hr 0.00 in0.0 mm
11:09 AM 73.7°F23.2°C 48.7°F9.3°C 43% - N16091.8 kmh N -- 27.52 in931.9 mb 0.00 in0.0 mm 0.00 in/hr0.0 mm/hr 0.00 in0.0 mm
11:14 AM 73.6°F23.1°C 49.7°F9.8°C 43% - N16091.8 kmh N -- 27.52 in931.9 mb 0.00 in0.0 mm 0.00 in/hr0.0 mm/hr 0.00 in0.0 mm
11:19 AM 74.0°F23.3°C 48.6°F9.2°C 38% - N16091.8 kmh N -- 27.52 in931.9 mb 0.00 in0.0 mm 0.00 in/hr0.0 mm/hr 0.00 in0.0 mm
11:24 AM 73.8°F23.2°C 48.4°F9.1°C 43% - N16091.8 kmh N -- 27.52 in931.9 mb 0.00 in0.0 mm 0.00 in/hr0.0 mm/hr 0.00 in0.0 mm
11:29 AM 74.1°F23.4°C 50.2°F10.1°C 43% - N16091.8 kmh N -- 27.52 in931.9 mb 0.00 in0.0 mm 0.00 in/hr0.0 mm/hr 0.00 in0.0 mm
11:34 AM 74.2°F23.4°C 48.1°F8.9°C 37% - N16091.8 kmh N -- 27.52 in931.9 mb 0.00 in0.0 mm 0.00 in/hr0.0 mm/hr 0.00 in0.0 mm
11:39 AM 74.1°F23.4°C 48.7°F9.3°C 43% - N16091.8 kmh N -- 27.52 in931.9 mb 0.00 in0.0 mm 0.00 in/hr0.0 mm/hr 0.00 in0.0 mm
11:44 AM 74.4°F23.6°C 50.2°F10.1°C 41% - N16091.8 kmh N -- 27.52 in931.9 mb 0.00 in0.0 mm 0.00 in/hr0.0 mm/hr 0.00 in0.0 mm
11:49 AM 74.3°F23.5°C 47.9°F8.8°C 41% - N16091.8 kmh N -- 27.52 in931.9 mb 0.00 in0.0 mm 0.00 in/hr0.0 mm/hr 0.00 in0.0 mm
11:54 AM 73.6°F23.1°C 49.6°F9.8°C 43% - N16091.8 kmh N -- 27.52 in931.9 mb 0.00 in0.0 mm 0.00 in/hr0.0 mm/hr 0.00 in0.0 mm
11:59 AM 74.0°F23.3°C 49.6°F9.8°C 41% - N16091.8 kmh N -- 27.52 in931.9 mb 0.00 in0.0 mm 0.00 in/hr0.0 mm/hr 0.00 in0.0 mm
12:04 PM 73.9°F23.3°C 47.3°F8.5°C 41% - N16091.8 kmh N -- 27.52 in931.9 mb 0.00 in0.0 mm 0.00 in/hr0.0 mm/hr 0.00 in0.0 mm
12:09 PM 73.9°F23.3°C 50.0°F10.0°C 43% - N16091.8 kmh N -- 27.52 in931.9 mb 0.00 in0.0 mm 0.00 in/hr0.0 mm/hr 0.00 in0.0 mm
12:14 PM 74.3°F23.5°C 48.4°F9.1°C 38% - N16091.8 kmh N -- 27.52 in931.9 mb 0.00 in0.0 mm 0.00 in/hr0.0 mm/hr 0.00 in0.0 mm
12:19 PM 74.0°F23.3°C 48.0°F8.9°C 43% - N16091.8 kmh N -- 27.52 in931.9 mb 0.00 in0.0 mm 0.00 in/hr0.0 mm/hr 0.00 in0.0 mm
12:24 PM 73.9°F23.3°C 49.9°F9.9°C 42% - N16091.8 kmh N -- 27.52 in931.9 mb 0.00 in0.0 mm 0.00 in/hr0.0 mm/hr 0.00 in0.0 mm
12:29 PM 74.1°F23.4°C 47.1°F8.4°C 37% - N16091.8 kmh N -- 27.52 in931.9 mb 0.00 in0.0 mm 0.00 in/hr0.0 mm/hr 0.00 in0.0 mm
12:34 PM 74.2°F23.4°C 48.9°F9.4°C 43% - N16091.8 kmh N -- 27.52 in931.9 mb 0.00 in0.0 mm 0.00 in/hr0.0 mm/hr 0.00 in0.0 mm
12:39 PM 74.6°F23.7°C 50.6°F10.3°C 42% - N16091.8 kmh N -- 27.52 in931.9 mb 0.00 in0.0 mm 0.00 in/hr0.0 mm/hr 0.00 in0.0 mm
12:44 PM 74.5°F23.6°C 47.4°F8.6°C 39% - N16091.8 kmh N -- 27.52 in931.9 mb 0.00 in0.0 mm 0.00 in/hr0.0 mm/hr 0.00 in0.0 mm
12:49 PM 74.5°F23.6°C 50.1°F10.1°C 44% - N16091.8 kmh N -- 27.52 in931.9 mb 0.00 in0.0 mm 0.00 in/hr0.0 mm/hr 0.00 in0.0 mm
12:54 PM 74.9°F23.8°C 50.6°F10.3°C 41% - N16091.8 kmh N -- 27.52 in931.9 mb 0.00 in0.0 mm 0.00 in/hr0.0 mm/hr 0.00 in0.0 mm
12:59 PM 74.7°F23.7°C 47.7°F8.7°C 41% - N16091.8 kmh N -- 27.52 in931.9 mb 0.00 in0.0 mm 0.00 in/hr0.0 mm/hr 0.00 in0.0 mm
01:04 PM 74.7°F23.7°C 50.5°F10.3°C 44% - N16091.8 kmh N -- 27.52 in931.9 mb 0.00 in0.0 mm 0.00 in/hr0.0 mm/hr 0.00 in0.0 mm
01:09 PM 74.8°F23.8°C 50.0°F10.0°C 39% - N16091.8 kmh N -- 27.52 in931.9 mb 0.00 in0.0 mm 0.00 in/hr0.0 mm/hr 0.00 in0.0 mm
01:14 PM 74.4°F23.6°C 48.2°F9.0°C 43% - N16091.8 kmh N -- 27.52 in931.9 mb 0.00 in0.0 mm 0.00 in/hr0.0 mm/hr 0.00 in0.0 mm
01:19 PM 74.4°F23.6°C 50.8°F10.4°C 44% - N16091.8 kmh N -- 27.52 in931.9 mb 0.00 in0.0 mm 0.00 in/hr0.0 mm/hr 0.00 in0.0 mm
01:24 PM 74.6°F23.7°C 50.0°F10.0°C 40% - N16091.8 kmh N -- 27.52 in931.9 mb 0.00 in0.0 mm 0.00 in/hr0.0 mm/hr 0.00 in0.0 mm
01:29 PM 74.2°F23.4°C 48.4°F9.1°C 43% - N16091.8 kmh N -- 27.55 in933.0 mb 0.00 in0.0 mm 0.00 in/hr0.0 mm/hr 0.00 in0.0 mm
01:34 PM 74.0°F23.3°C 50.7°F10.4°C 44% - N16091.8 kmh N -- 27.55 in933.0 mb 0.00 in0.0 mm 0.00 in/hr0.0 mm/hr 0.00 in0.0 mm
01:39 PM 74.2°F23.4°C 49.0°F9.4°C 39% 2.2 mph NE3.5 kmh NE 3.8 mph6.1 kmh 27.55 in933.0 mb 0.00 in0.0 mm 0.00 in/hr0.0 mm/hr 0.00 in0.0 mm
01:44 PM 73.7°F23.2°C 48.9°F9.4°C 45% 3.3 mph NE5.3 kmh NE 4.3 mph6.9 kmh 27.55 in933.0 mb 0.00 in0.0 mm 0.00 in/hr0.0 mm/hr 0.00 in0.0 mm
01:49 PM 73.6°F23.1°C 50.6°F10.3°C 43% 2.6 mph NE4.2 kmh NE 4.7 mph7.6 kmh 27.55 in933.0 mb 0.00 in0.0 mm 0.00 in/hr0.0 mm/hr 0.00 in0.0 mm
01:54 PM 73.9°F23.3°C 48.6°F9.2°C 39% 3.4 mph NE5.5 kmh NE 5.4 mph8.7 kmh 27.55 in933.0 mb 0.00 in0.0 mm 0.00 in/hr0.0 mm/hr 0.00 in0.0 mm
01:59 PM 73.8°F23.2°C 47.8°F8.8°C 40% 2.2 mph N3.5 kmh N 5.4 mph8.7 kmh 27.55 in933.0 mb 0.00 in0.0 mm 0.00 in/hr0.0 mm/hr 0.00 in0.0 mm
02:04 PM 73.6°F23.1°C 47.6°F8.7°C 43% 2.2 mph N3.5 kmh N 3.6 mph5.8 kmh 27.55 in933.0 mb 0.00 in0.0 mm 0.00 in/hr0.0 mm/hr 0.00 in0.0 mm
02:09 PM 73.2°F22.9°C 52.9°F11.6°C 53% 2.2 mph WNW3.5 kmh WNW 3.8 mph6.1 kmh 27.55 in933.0 mb 0.00 in0.0 mm 0.00 in/hr0.0 mm/hr 0.00 in0.0 mm
02:14 PM 73.3°F22.9°C 56.4°F13.6°C 56% - N16091.8 kmh N -- 27.55 in933.0 mb 0.00 in0.0 mm 0.00 in/hr0.0 mm/hr 0.00 in0.0 mm
02:19 PM 73.6°F23.1°C 53.0°F11.7°C 45% 2.5 mph N4.0 kmh N 2.0 mph3.2 kmh 27.55 in933.0 mb 0.00 in0.0 mm 0.00 in/hr0.0 mm/hr 0.00 in0.0 mm
02:24 PM 73.3°F22.9°C 50.0°F10.0°C 47% Calm Calm 2.0 mph3.2 kmh 27.55 in933.0 mb 0.00 in0.0 mm 0.00 in/hr0.0 mm/hr 0.00 in0.0 mm
02:29 PM 72.9°F22.7°C 54.1°F12.3°C 55% - N16091.8 kmh N -- 27.55 in933.0 mb 0.00 in0.0 mm 0.00 in/hr0.0 mm/hr 0.00 in0.0 mm
02:34 PM 73.1°F22.8°C 56.1°F13.4°C 54% 1.3 mph SE2.1 kmh SE 3.4 mph5.5 kmh 27.55 in933.0 mb 0.00 in0.0 mm 0.00 in/hr0.0 mm/hr 0.00 in0.0 mm
02:39 PM 73.3°F22.9°C 52.3°F11.3°C 44% 0.4 mph NE0.6 kmh NE 3.4 mph5.5 kmh 27.55 in933.0 mb 0.00 in0.0 mm 0.00 in/hr0.0 mm/hr 0.00 in0.0 mm
02:44 PM 73.1°F22.8°C 49.6°F9.8°C 46% 2.0 mph SE3.2 kmh SE 2.7 mph4.3 kmh 27.55 in933.0 mb 0.00 in0.0 mm 0.00 in/hr0.0 mm/hr 0.00 in0.0 mm
02:49 PM 72.7°F22.6°C 53.8°F12.1°C 54% 4.0 mph N6.4 kmh N 8.5 mph13.7 kmh 27.55 in933.0 mb 0.00 in0.0 mm 0.00 in/hr0.0 mm/hr 0.00 in0.0 mm
02:54 PM 73.1°F22.8°C 55.4°F13.0°C 51% 3.0 mph NE4.8 kmh NE 8.5 mph13.7 kmh 27.55 in933.0 mb 0.00 in0.0 mm 0.00 in/hr0.0 mm/hr 0.00 in0.0 mm
02:59 PM 73.2°F22.9°C 51.2°F10.7°C 44% 6.3 mph NE10.1 kmh NE 7.4 mph11.9 kmh 27.55 in933.0 mb 0.00 in0.0 mm 0.00 in/hr0.0 mm/hr 0.00 in0.0 mm
03:04 PM 72.9°F22.7°C 51.7°F10.9°C 51% - N16091.8 kmh N -- 27.55 in933.0 mb 0.00 in0.0 mm 0.00 in/hr0.0 mm/hr 0.00 in0.0 mm
03:09 PM 72.7°F22.6°C 55.0°F12.8°C 55% - N16091.8 kmh N -- 27.55 in933.0 mb 0.00 in0.0 mm 0.00 in/hr0.0 mm/hr 0.00 in0.0 mm
03:14 PM 72.9°F22.7°C 55.8°F13.2°C 55% - N16091.8 kmh N -- 27.52 in931.9 mb 0.00 in0.0 mm 0.00 in/hr0.0 mm/hr 0.00 in0.0 mm
03:19 PM 73.2°F22.9°C 56.0°F13.3°C 55% - N16091.8 kmh N -- 27.52 in931.9 mb 0.00 in0.0 mm 0.00 in/hr0.0 mm/hr 0.00 in0.0 mm
03:24 PM 73.5°F23.1°C 55.6°F13.1°C 53% - N16091.8 kmh N -- 27.52 in931.9 mb 0.00 in0.0 mm 0.00 in/hr0.0 mm/hr 0.00 in0.0 mm
03:29 PM 73.4°F23.0°C 52.2°F11.2°C 45% - N16091.8 kmh N -- 27.52 in931.9 mb 0.00 in0.0 mm 0.00 in/hr0.0 mm/hr 0.00 in0.0 mm
03:34 PM 73.1°F22.8°C 52.3°F11.3°C 50% 0.7 mph NE1.1 kmh NE 4.9 mph7.9 kmh 27.52 in931.9 mb 0.00 in0.0 mm 0.00 in/hr0.0 mm/hr 0.00 in0.0 mm
03:39 PM 72.9°F22.7°C 54.6°F12.6°C 54% 2.6 mph ENE4.2 kmh ENE 4.9 mph7.9 kmh 27.52 in931.9 mb 0.00 in0.0 mm 0.00 in/hr0.0 mm/hr 0.00 in0.0 mm
03:44 PM 72.9°F22.7°C 55.4°F13.0°C 55% 1.3 mph N2.1 kmh N 4.9 mph7.9 kmh 27.52 in931.9 mb 0.00 in0.0 mm 0.00 in/hr0.0 mm/hr 0.00 in0.0 mm
03:49 PM 72.9°F22.7°C 55.7°F13.2°C 55% 1.5 mph S2.4 kmh S 4.3 mph6.9 kmh 27.52 in931.9 mb 0.00 in0.0 mm 0.00 in/hr0.0 mm/hr 0.00 in0.0 mm
03:54 PM 73.0°F22.8°C 55.8°F13.2°C 54% 3.1 mph WSW5.0 kmh WSW 5.8 mph9.3 kmh 27.52 in931.9 mb 0.00 in0.0 mm 0.00 in/hr0.0 mm/hr 0.00 in0.0 mm
03:59 PM 73.1°F22.8°C 55.5°F13.1°C 54% 1.9 mph W3.1 kmh W 5.8 mph9.3 kmh 27.55 in933.0 mb 0.00 in0.0 mm 0.00 in/hr0.0 mm/hr 0.00 in0.0 mm
04:04 PM 73.2°F22.9°C 55.6°F13.1°C 54% 1.5 mph SSW2.4 kmh SSW 3.6 mph5.8 kmh 27.55 in933.0 mb 0.00 in0.0 mm 0.00 in/hr0.0 mm/hr 0.00 in0.0 mm
04:09 PM 73.4°F23.0°C 55.6°F13.1°C 53% 1.7 mph S2.7 kmh S 3.4 mph5.5 kmh 27.55 in933.0 mb 0.00 in0.0 mm 0.00 in/hr0.0 mm/hr 0.00 in0.0 mm
04:14 PM 73.6°F23.1°C 55.4°F13.0°C 53% 0.7 mph E1.1 kmh E 2.7 mph4.3 kmh 27.52 in931.9 mb 0.00 in0.0 mm 0.00 in/hr0.0 mm/hr 0.00 in0.0 mm
04:19 PM 73.7°F23.2°C 54.2°F12.3°C 47% Calm Calm 2.5 mph4.0 kmh 27.52 in931.9 mb 0.00 in0.0 mm 0.00 in/hr0.0 mm/hr 0.00 in0.0 mm
04:24 PM 73.0°F22.8°C 50.8°F10.4°C 47% Calm Calm 1.3 mph2.1 kmh 27.52 in931.9 mb 0.00 in0.0 mm 0.00 in/hr0.0 mm/hr 0.00 in0.0 mm
04:29 PM 72.2°F22.3°C 53.3°F11.8°C 53% Calm Calm -- 27.55 in933.0 mb 0.00 in0.0 mm 0.00 in/hr0.0 mm/hr 0.00 in0.0 mm
04:34 PM 72.2°F22.3°C 54.9°F12.7°C 55% Calm Calm -- 27.55 in933.0 mb 0.00 in0.0 mm 0.00 in/hr0.0 mm/hr 0.00 in0.0 mm
04:39 PM 72.5°F22.5°C 55.5°F13.1°C 55% Calm Calm 1.3 mph2.1 kmh 27.55 in933.0 mb 0.00 in0.0 mm 0.00 in/hr0.0 mm/hr 0.00 in0.0 mm
04:44 PM 72.9°F22.7°C 55.8°F13.2°C 55% 1.3 mph ENE2.1 kmh ENE 2.2 mph3.5 kmh 27.55 in933.0 mb 0.00 in0.0 mm 0.00 in/hr0.0 mm/hr 0.00 in0.0 mm
04:49 PM 73.2°F22.9°C 55.6°F13.1°C 54% 1.1 mph WNW1.8 kmh WNW 3.1 mph5.0 kmh 27.55 in933.0 mb 0.00 in0.0 mm 0.00 in/hr0.0 mm/hr 0.00 in0.0 mm
04:54 PM 73.5°F23.1°C 55.5°F13.1°C 53% 0.6 mph NNE1.0 kmh NNE 3.1 mph5.0 kmh 27.55 in933.0 mb 0.00 in0.0 mm 0.00 in/hr0.0 mm/hr 0.00 in0.0 mm
04:59 PM 73.7°F23.2°C 55.1°F12.8°C 52% 1.8 mph N2.9 kmh N 2.7 mph4.3 kmh 27.58 in934.0 mb 0.00 in0.0 mm 0.00 in/hr0.0 mm/hr 0.00 in0.0 mm
05:04 PM 73.4°F23.0°C 51.4°F10.8°C 44% 1.9 mph NNW3.1 kmh NNW 4.0 mph6.4 kmh 27.58 in934.0 mb 0.00 in0.0 mm 0.00 in/hr0.0 mm/hr 0.00 in0.0 mm
05:09 PM 72.5°F22.5°C 52.0°F11.1°C 51% 2.5 mph NE4.0 kmh NE 4.3 mph6.9 kmh 27.58 in934.0 mb 0.00 in0.0 mm 0.00 in/hr0.0 mm/hr 0.00 in0.0 mm
05:14 PM 72.2°F22.3°C 53.9°F12.2°C 53% 3.1 mph N5.0 kmh N 4.9 mph7.9 kmh 27.58 in934.0 mb 0.00 in0.0 mm 0.00 in/hr0.0 mm/hr 0.00 in0.0 mm
05:19 PM 72.5°F22.5°C 54.9°F12.7°C 54% 1.1 mph WNW1.8 kmh WNW 4.9 mph7.9 kmh 27.58 in934.0 mb 0.00 in0.0 mm 0.00 in/hr0.0 mm/hr 0.00 in0.0 mm
05:24 PM 72.9°F22.7°C 54.9°F12.7°C 53% 0.2 mph S0.3 kmh S 2.5 mph4.0 kmh 27.58 in934.0 mb 0.00 in0.0 mm 0.00 in/hr0.0 mm/hr 0.00 in0.0 mm
05:29 PM 73.3°F22.9°C 55.1°F12.8°C 53% Calm Calm 1.3 mph2.1 kmh 27.58 in934.0 mb 0.00 in0.0 mm 0.00 in/hr0.0 mm/hr 0.00 in0.0 mm
05:34 PM 73.5°F23.1°C 54.1°F12.3°C 48% - N16091.8 kmh N -- 27.58 in934.0 mb 0.00 in0.0 mm 0.00 in/hr0.0 mm/hr 0.00 in0.0 mm
05:39 PM 73.0°F22.8°C 50.2°F10.1°C 46% - N16091.8 kmh N -- 27.58 in934.0 mb 0.00 in0.0 mm 0.00 in/hr0.0 mm/hr 0.00 in0.0 mm
05:44 PM 72.9°F22.7°C 53.1°F11.7°C 52% - N16091.8 kmh N -- 27.55 in933.0 mb 0.00 in0.0 mm 0.00 in/hr0.0 mm/hr 0.00 in0.0 mm
05:49 PM 73.0°F22.8°C 54.4°F12.4°C 52% 3.7 mph NNW6.0 kmh NNW 6.5 mph10.5 kmh 27.55 in933.0 mb 0.00 in0.0 mm 0.00 in/hr0.0 mm/hr 0.00 in0.0 mm
05:54 PM 73.5°F23.1°C 54.6°F12.6°C 51% 3.4 mph NNW5.5 kmh NNW 6.5 mph10.5 kmh 27.55 in933.0 mb 0.00 in0.0 mm 0.00 in/hr0.0 mm/hr 0.00 in0.0 mm
05:59 PM 73.8°F23.2°C 54.2°F12.3°C 49% 3.4 mph N5.5 kmh N 6.5 mph10.5 kmh 27.55 in933.0 mb 0.00 in0.0 mm 0.00 in/hr0.0 mm/hr 0.00 in0.0 mm
06:04 PM 73.5°F23.1°C 50.5°F10.3°C 43% 2.5 mph NE4.0 kmh NE 5.4 mph8.7 kmh 27.55 in933.0 mb 0.00 in0.0 mm 0.00 in/hr0.0 mm/hr 0.00 in0.0 mm
06:09 PM 73.1°F22.8°C 51.7°F10.9°C 50% 3.3 mph N5.3 kmh N 5.4 mph8.7 kmh 27.55 in933.0 mb 0.00 in0.0 mm 0.00 in/hr0.0 mm/hr 0.00 in0.0 mm
06:14 PM 73.1°F22.8°C 54.0°F12.2°C 52% 2.9 mph NE4.7 kmh NE 5.6 mph9.0 kmh 27.52 in931.9 mb 0.00 in0.0 mm 0.00 in/hr0.0 mm/hr 0.00 in0.0 mm
06:19 PM 73.3°F22.9°C 54.2°F12.3°C 51% 2.9 mph NNE4.7 kmh NNE 5.8 mph9.3 kmh 27.52 in931.9 mb 0.00 in0.0 mm 0.00 in/hr0.0 mm/hr 0.00 in0.0 mm
06:24 PM 73.5°F23.1°C 54.1°F12.3°C 50% 2.1 mph NNE3.4 kmh NNE 5.8 mph9.3 kmh 27.52 in931.9 mb 0.00 in0.0 mm 0.00 in/hr0.0 mm/hr 0.00 in0.0 mm
06:29 PM 73.7°F23.2°C 54.0°F12.2°C 50% 2.3 mph SE3.7 kmh SE 3.8 mph6.1 kmh 27.52 in931.9 mb 0.00 in0.0 mm 0.00 in/hr0.0 mm/hr 0.00 in0.0 mm
06:34 PM 73.9°F23.3°C 54.1°F12.3°C 50% 2.5 mph WSW4.0 kmh WSW 3.8 mph6.1 kmh 27.52 in931.9 mb 0.00 in0.0 mm 0.00 in/hr0.0 mm/hr 0.00 in0.0 mm
06:39 PM 74.0°F23.3°C 54.0°F12.2°C 49% 2.5 mph N4.0 kmh N 3.6 mph5.8 kmh 27.52 in931.9 mb 0.00 in0.0 mm 0.00 in/hr0.0 mm/hr 0.00 in0.0 mm
06:44 PM 74.1°F23.4°C 53.8°F12.1°C 49% 3.2 mph W5.1 kmh W 4.7 mph7.6 kmh 27.58 in934.0 mb 0.00 in0.0 mm 0.00 in/hr0.0 mm/hr 0.00 in0.0 mm
06:49 PM 74.2°F23.4°C 53.8°F12.1°C 49% 1.7 mph WSW2.7 kmh WSW 4.7 mph7.6 kmh 27.58 in934.0 mb 0.00 in0.0 mm 0.00 in/hr0.0 mm/hr 0.00 in0.0 mm
06:54 PM 74.3°F23.5°C 53.9°F12.2°C 49% 2.4 mph NNE3.9 kmh NNE 3.8 mph6.1 kmh 27.58 in934.0 mb 0.00 in0.0 mm 0.00 in/hr0.0 mm/hr 0.00 in0.0 mm
06:59 PM 74.3°F23.5°C 53.9°F12.2°C 49% Calm Calm 3.8 mph6.1 kmh 27.55 in933.0 mb 0.00 in0.0 mm 0.00 in/hr0.0 mm/hr 0.00 in0.0 mm
07:04 PM 74.3°F23.5°C 53.9°F12.2°C 49% 2.1 mph NW3.4 kmh NW 3.6 mph5.8 kmh 27.55 in933.0 mb 0.00 in0.0 mm 0.00 in/hr0.0 mm/hr 0.00 in0.0 mm
07:09 PM 74.3°F23.5°C 53.9°F12.2°C 49% Calm Calm 3.6 mph5.8 kmh 27.55 in933.0 mb 0.00 in0.0 mm 0.00 in/hr0.0 mm/hr 0.00 in0.0 mm
07:14 PM 74.3°F23.5°C 53.9°F12.2°C 49% 1.9 mph WNW3.1 kmh WNW 2.9 mph4.7 kmh 27.52 in931.9 mb 0.00 in0.0 mm 0.00 in/hr0.0 mm/hr 0.00 in0.0 mm
07:19 PM 74.2°F23.4°C 53.9°F12.2°C 49% 1.1 mph N1.8 kmh N 2.9 mph4.7 kmh 27.52 in931.9 mb 0.00 in0.0 mm 0.00 in/hr0.0 mm/hr 0.00 in0.0 mm
07:24 PM 74.1°F23.4°C 53.8°F12.1°C 49% 2.1 mph NE3.4 kmh NE 2.7 mph4.3 kmh 27.52 in931.9 mb 0.00 in0.0 mm 0.00 in/hr0.0 mm/hr 0.00 in0.0 mm
07:29 PM 74.1°F23.4°C 53.8°F12.1°C 49% Calm Calm 3.1 mph5.0 kmh 27.52 in931.9 mb 0.00 in0.0 mm 0.00 in/hr0.0 mm/hr 0.00 in0.0 mm
07:34 PM 74.1°F23.4°C 53.8°F12.1°C 49% Calm Calm 3.1 mph5.0 kmh 27.52 in931.9 mb 0.00 in0.0 mm 0.00 in/hr0.0 mm/hr 0.00 in0.0 mm
07:39 PM 74.1°F23.4°C 53.7°F12.1°C 49% 1.1 mph NE1.8 kmh NE 2.5 mph4.0 kmh 27.52 in931.9 mb 0.00 in0.0 mm 0.00 in/hr0.0 mm/hr 0.00 in0.0 mm
07:44 PM 73.9°F23.3°C 53.6°F12.0°C 49% 0.7 mph SSW1.1 kmh SSW 2.5 mph4.0 kmh 27.55 in933.0 mb 0.00 in0.0 mm 0.00 in/hr0.0 mm/hr 0.00 in0.0 mm
07:49 PM 73.9°F23.3°C 53.6°F12.0°C 49% 0.5 mph WSW0.8 kmh WSW 2.9 mph4.7 kmh 27.55 in933.0 mb 0.00 in0.0 mm 0.00 in/hr0.0 mm/hr 0.00 in0.0 mm
07:54 PM 73.9°F23.3°C 53.6°F12.0°C 49% Calm Calm 2.9 mph4.7 kmh 27.55 in933.0 mb 0.00 in0.0 mm 0.00 in/hr0.0 mm/hr 0.00 in0.0 mm
07:59 PM 73.9°F23.3°C 53.6°F12.0°C 49% Calm Calm 1.3 mph2.1 kmh 27.55 in933.0 mb 0.00 in0.0 mm 0.00 in/hr0.0 mm/hr 0.00 in0.0 mm
08:04 PM 73.8°F23.2°C 53.5°F11.9°C 49% Calm Calm 1.1 mph1.8 kmh 27.55 in933.0 mb 0.00 in0.0 mm 0.00 in/hr0.0 mm/hr 0.00 in0.0 mm
08:09 PM 73.8°F23.2°C 53.5°F11.9°C 50% Calm Calm 1.1 mph1.8 kmh 27.55 in933.0 mb 0.00 in0.0 mm 0.00 in/hr0.0 mm/hr 0.00 in0.0 mm
08:14 PM 73.8°F23.2°C 54.0°F12.2°C 50% Calm Calm -- 27.58 in934.0 mb 0.00 in0.0 mm 0.00 in/hr0.0 mm/hr 0.00 in0.0 mm
08:19 PM 73.8°F23.2°C 54.0°F12.2°C 50% Calm Calm -- 27.58 in934.0 mb 0.00 in0.0 mm 0.00 in/hr0.0 mm/hr 0.00 in0.0 mm
08:24 PM 73.7°F23.2°C 54.0°F12.2°C 50% 0.4 mph W0.6 kmh W 2.9 mph4.7 kmh 27.58 in934.0 mb 0.00 in0.0 mm 0.00 in/hr0.0 mm/hr 0.00 in0.0 mm
08:29 PM 73.6°F23.1°C 53.8°F12.1°C 50% Calm Calm 2.9 mph4.7 kmh 27.58 in934.0 mb 0.00 in0.0 mm 0.00 in/hr0.0 mm/hr 0.00 in0.0 mm
08:34 PM 73.6°F23.1°C 53.9°F12.2°C 51% Calm Calm -- 27.58 in934.0 mb 0.00 in0.0 mm 0.00 in/hr0.0 mm/hr 0.00 in0.0 mm
08:39 PM 73.6°F23.1°C 54.3°F12.4°C 51% Calm Calm -- 27.58 in934.0 mb 0.00 in0.0 mm 0.00 in/hr0.0 mm/hr 0.00 in0.0 mm
08:44 PM 73.4°F23.0°C 54.2°F12.3°C 51% - N16091.8 kmh N -- 27.58 in934.0 mb 0.00 in0.0 mm 0.00 in/hr0.0 mm/hr 0.00 in0.0 mm
08:49 PM 73.4°F23.0°C 54.2°F12.3°C 51% - N16091.8 kmh N -- 27.58 in934.0 mb 0.00 in0.0 mm 0.00 in/hr0.0 mm/hr 0.00 in0.0 mm
08:54 PM 73.4°F23.0°C 54.2°F12.3°C 51% 1.6 mph N2.6 kmh N 1.3 mph2.1 kmh 27.58 in934.0 mb 0.00 in0.0 mm 0.00 in/hr0.0 mm/hr 0.00 in0.0 mm
08:59 PM 73.3°F22.9°C 54.1°F12.3°C 51% 0.7 mph N1.1 kmh N 3.4 mph5.5 kmh 27.58 in934.0 mb 0.00 in0.0 mm 0.00 in/hr0.0 mm/hr 0.00 in0.0 mm
09:04 PM 73.2°F22.9°C 54.1°F12.3°C 52% Calm Calm 3.4 mph5.5 kmh 27.58 in934.0 mb 0.00 in0.0 mm 0.00 in/hr0.0 mm/hr 0.00 in0.0 mm
09:09 PM 73.1°F22.8°C 54.5°F12.5°C 52% Calm Calm -- 27.58 in934.0 mb 0.00 in0.0 mm 0.00 in/hr0.0 mm/hr 0.00 in0.0 mm
09:14 PM 73.0°F22.8°C 54.4°F12.4°C 52% Calm Calm -- 27.58 in934.0 mb 0.00 in0.0 mm 0.00 in/hr0.0 mm/hr 0.00 in0.0 mm
09:19 PM 72.9°F22.7°C 54.3°F12.4°C 52% - N16091.8 kmh N -- 27.58 in934.0 mb 0.00 in0.0 mm 0.00 in/hr0.0 mm/hr 0.00 in0.0 mm
09:24 PM 72.9°F22.7°C 54.2°F12.3°C 52% Calm Calm -- 27.58 in934.0 mb 0.00 in0.0 mm 0.00 in/hr0.0 mm/hr 0.00 in0.0 mm
09:29 PM 72.8°F22.7°C 54.1°F12.3°C 52% Calm Calm -- 27.58 in934.0 mb 0.00 in0.0 mm 0.00 in/hr0.0 mm/hr 0.00 in0.0 mm
09:34 PM 72.7°F22.6°C 54.1°F12.3°C 52% Calm Calm -- 27.58 in934.0 mb 0.00 in0.0 mm 0.00 in/hr0.0 mm/hr 0.00 in0.0 mm
09:39 PM 72.5°F22.5°C 54.3°F12.4°C 53% Calm Calm -- 27.58 in934.0 mb 0.00 in0.0 mm 0.00 in/hr0.0 mm/hr 0.00 in0.0 mm
09:44 PM 72.5°F22.5°C 54.4°F12.4°C 53% - N16091.8 kmh N -- 27.58 in934.0 mb 0.00 in0.0 mm 0.00 in/hr0.0 mm/hr 0.00 in0.0 mm
09:49 PM 72.3°F22.4°C 54.3°F12.4°C 53% - N16091.8 kmh N -- 27.58 in934.0 mb 0.00 in0.0 mm 0.00 in/hr0.0 mm/hr 0.00 in0.0 mm
09:54 PM 72.3°F22.4°C 54.3°F12.4°C 53% - N16091.8 kmh N -- 27.58 in934.0 mb 0.00 in0.0 mm 0.00 in/hr0.0 mm/hr 0.00 in0.0 mm
09:59 PM 72.2°F22.3°C 54.1°F12.3°C 53% - N16091.8 kmh N -- 27.58 in934.0 mb 0.00 in0.0 mm 0.00 in/hr0.0 mm/hr 0.00 in0.0 mm
10:04 PM 72.1°F22.3°C 54.1°F12.3°C 53% - N16091.8 kmh N -- 27.58 in934.0 mb 0.00 in0.0 mm 0.00 in/hr0.0 mm/hr 0.00 in0.0 mm
10:09 PM 72.1°F22.3°C 54.1°F12.3°C 53% Calm Calm -- 27.58 in934.0 mb 0.00 in0.0 mm 0.00 in/hr0.0 mm/hr 0.00 in0.0 mm
10:14 PM 72.0°F22.2°C 53.9°F12.2°C 53% 1.0 mph N1.6 kmh N 1.6 mph2.6 kmh 27.58 in934.0 mb 0.00 in0.0 mm 0.00 in/hr0.0 mm/hr 0.00 in0.0 mm
10:19 PM 72.0°F22.2°C 53.9°F12.2°C 53% Calm Calm 1.6 mph2.6 kmh 27.58 in934.0 mb 0.00 in0.0 mm 0.00 in/hr0.0 mm/hr 0.00 in0.0 mm
10:24 PM 71.8°F22.1°C 53.8°F12.1°C 53% Calm Calm -- 27.58 in934.0 mb 0.00 in0.0 mm 0.00 in/hr0.0 mm/hr 0.00 in0.0 mm
10:29 PM 71.8°F22.1°C 53.8°F12.1°C 53% Calm Calm -- 27.61 in935.0 mb 0.00 in0.0 mm 0.00 in/hr0.0 mm/hr 0.00 in0.0 mm
10:34 PM 71.7°F22.1°C 53.9°F12.2°C 54% Calm Calm -- 27.61 in935.0 mb 0.00 in0.0 mm 0.00 in/hr0.0 mm/hr 0.00 in0.0 mm
10:39 PM 71.6°F22.0°C 54.1°F12.3°C 54% Calm Calm 2.2 mph3.5 kmh 27.61 in935.0 mb 0.00 in0.0 mm 0.00 in/hr0.0 mm/hr 0.00 in0.0 mm
10:44 PM 71.6°F22.0°C 54.1°F12.3°C 54% 0.4 mph WNW0.6 kmh WNW 2.5 mph4.0 kmh 27.61 in935.0 mb 0.00 in0.0 mm 0.00 in/hr0.0 mm/hr 0.00 in0.0 mm
10:49 PM 71.4°F21.9°C 53.9°F12.2°C 54% Calm Calm 2.5 mph4.0 kmh 27.61 in935.0 mb 0.00 in0.0 mm 0.00 in/hr0.0 mm/hr 0.00 in0.0 mm
10:54 PM 71.4°F21.9°C 53.9°F12.2°C 54% Calm Calm 0.9 mph1.4 kmh 27.61 in935.0 mb 0.00 in0.0 mm 0.00 in/hr0.0 mm/hr 0.00 in0.0 mm
10:59 PM 71.2°F21.8°C 53.8°F12.1°C 54% Calm Calm -- 27.58 in934.0 mb 0.00 in0.0 mm 0.00 in/hr0.0 mm/hr 0.00 in0.0 mm
11:04 PM 71.2°F21.8°C 53.8°F12.1°C 54% Calm Calm -- 27.58 in934.0 mb 0.00 in0.0 mm 0.00 in/hr0.0 mm/hr 0.00 in0.0 mm
11:09 PM 71.1°F21.7°C 53.7°F12.1°C 54% Calm Calm -- 27.58 in934.0 mb 0.00 in0.0 mm 0.00 in/hr0.0 mm/hr 0.00 in0.0 mm
11:14 PM 71.1°F21.7°C 53.6°F12.0°C 54% Calm Calm -- 27.58 in934.0 mb 0.00 in0.0 mm 0.00 in/hr0.0 mm/hr 0.00 in0.0 mm
11:19 PM 71.0°F21.7°C 53.5°F11.9°C 54% Calm Calm -- 27.58 in934.0 mb 0.00 in0.0 mm 0.00 in/hr0.0 mm/hr 0.00 in0.0 mm
11:24 PM 70.9°F21.6°C 53.4°F11.9°C 54% Calm Calm 1.6 mph2.6 kmh 27.58 in934.0 mb 0.00 in0.0 mm 0.00 in/hr0.0 mm/hr 0.00 in0.0 mm
11:29 PM 70.8°F21.6°C 53.3°F11.8°C 54% Calm Calm 1.6 mph2.6 kmh 27.58 in934.0 mb 0.00 in0.0 mm 0.00 in/hr0.0 mm/hr 0.00 in0.0 mm
11:34 PM 70.7°F21.5°C 53.3°F11.8°C 54% Calm Calm 1.6 mph2.6 kmh 27.58 in934.0 mb 0.00 in0.0 mm 0.00 in/hr0.0 mm/hr 0.00 in0.0 mm
11:39 PM 70.5°F21.4°C 53.1°F11.7°C 54% 1.5 mph E2.4 kmh E 3.1 mph5.0 kmh 27.58 in934.0 mb 0.00 in0.0 mm 0.00 in/hr0.0 mm/hr 0.00 in0.0 mm
11:44 PM 70.5°F21.4°C 53.1°F11.7°C 54% Calm Calm 3.1 mph5.0 kmh 27.58 in934.0 mb 0.00 in0.0 mm 0.00 in/hr0.0 mm/hr 0.00 in0.0 mm
11:49 PM 70.3°F21.3°C 53.4°F11.9°C 55% Calm Calm -- 27.58 in934.0 mb 0.00 in0.0 mm 0.00 in/hr0.0 mm/hr 0.00 in0.0 mm
11:54 PM 70.3°F21.3°C 53.4°F11.9°C 55% 0.8 mph NNW1.3 kmh NNW 2.2 mph3.5 kmh 27.58 in934.0 mb 0.00 in0.0 mm 0.00 in/hr0.0 mm/hr 0.00 in0.0 mm
11:59 PM 70.2°F21.2°C 53.3°F11.8°C 55% 1.5 mph NNW2.4 kmh NNW 3.1 mph5.0 kmh 27.58 in934.0 mb 0.00 in0.0 mm 0.00 in/hr0.0 mm/hr 0.00 in0.0 mm